Vaaraa aiheuttavia sääilmiöitä ei ole odotettavissa.    Ei varoituksia

Webkamera Lisätietoa Webcam


Yksityisiä sääasemia lähellä:

Sääasema Juupajoki

Sääasema Orivesi

Sääasema Muurame

Sääasema Jyväskylä

Sääasema Vihtavuori


Löydät sääaseman tiedot myös:

Finland Weather Exchange

European Weather Network

Weather Underground

AWEKAS

Windy.com



Säätiedot lähimmiltä METAR asemilta

   
EFHA - Halli (Fin-Afb), Finland
Etäisyys asemalta: Kaakko 25 km
Päivitetty: 28.01.2020 18:20
Sumua, Pilvistä  
Sumua, Pilvistä  
   Tuuli: Eteläkaakko 2.1 m/s
Tuuli: Eteläkaakko 2.1 m/s
Lämpötila: 0°C
Tuulen hyytävyys: -3°C
Kastepiste: 0°C
Kosteus: 100%
Ilmanpaine: 998 hPa
Pilvisyys: Pilvistä
Näkyvyys: 1 km
Pilvitiedot: Pilvistä 61 m
EFHA 281620Z AUTO 16004KT 130V190 0750 R26/0800D FG VV002 00/00 Q0998
EFJY - Jyvaskyla (Mil/Civ), Finland
Etäisyys asemalta: Koillinen 75 km
Päivitetty: 28.01.2020 18:20
Heikkoa lumisadetta, Pilvistä  
Heikkoa lumisadetta, Pilvistä  
   Tuuli: Kaakko 2.1 m/s
Tuuli: Kaakko 2.1 m/s
Lämpötila: -2°C
Tuulen hyytävyys: -5°C
Kastepiste: -3°C
Kosteus: 93%
Ilmanpaine: 999 hPa
Pilvisyys: Pilvistä
Näkyvyys: 7 km
Pilvitiedot: Pilvistä 61 m
EFJY 281620Z AUTO 13004KT 7000 -SN OVC002 M02/M03 Q0999
EFTP - Tampere/Pirkkala, Finland
Etäisyys asemalta: Lounas 81 km
Päivitetty: 28.01.2020 18:20
Utua, Pilvistä  
Utua, Pilvistä  
   Tuuli: Eteläkaakko 2.6 m/s
Tuuli: Eteläkaakko 2.6 m/s
Lämpötila: 2°C
Tuulen hyytävyys: -1°C
Kastepiste: 2°C
Kosteus: 100%
Ilmanpaine: 998 hPa
Pilvisyys: Pilvistä
Näkyvyys: 3 km
Pilvitiedot: Pilvistä 31 m
EFTP 281620Z AUTO 15005KT 3300 BR OVC001 02/02 Q0998
EFSI - Seinajoki-Ilmajoki, Finland
Etäisyys asemalta: Luode 114 km
Päivitetty: 28.01.2020 18:20
Utua, Pilvistä  
Utua, Pilvistä  
   Tuuli: Itäkaakko 2.1 m/s
Tuuli: Itäkaakko 2.1 m/s
Lämpötila: 0°C
Tuulen hyytävyys: -3°C
Kastepiste: 0°C
Kosteus: 100%
Ilmanpaine: 997 hPa
Pilvisyys: Pilvistä
Näkyvyys: 3 km
Pilvitiedot: Puolipilvistä 31 m,
Pilvistä 274 m
EFSI 281620Z AUTO 12004KT 2700 BR SCT001 OVC009 00/00 Q0997
EFMI - Mikkeli, Finland
Etäisyys asemalta: Itäkaakko 147 km
Päivitetty: 28.01.2020 18:20
Pilvistä  
Pilvistä  
   Tuuli: Itäkaakko 2.6 m/s
Tuuli: Itäkaakko 2.6 m/s
Lämpötila: -2°C
Tuulen hyytävyys: -6°C
Kastepiste: -2°C
Kosteus: 100%
Ilmanpaine: 1001 hPa
Pilvisyys: Pilvistä
Näkyvyys: 9 km
Pilvitiedot: Pilvistä 91 m
EFMI 281620Z AUTO 11005KT 9000 OVC003 M02/M02 Q1001
EFPO - Pori (Mil/Civ), Finland
Etäisyys asemalta: Länsilounas 154 km
Päivitetty: 28.01.2020 18:20
Sumupilvilauttoja, Sumua, Melkein pilvistä  
Sumupilvilauttoja, Sumua, Melkein pilvistä  
   Tuuli: Vaihtelee 1 m/s
Tuuli: Vaihtelee 1 m/s
Lämpötila: 2°C
Kastepiste: 2°C
Kosteus: 100%
Ilmanpaine: 997 hPa
Pilvisyys: Melkein pilvistä
Näkyvyys: 3 km
Pilvitiedot: Melkein pilvistä 884 m
EFPO 281620Z AUTO VRB02KT 3400 BCFG BKN029 02/02 Q0997
EFUT - Utti (Fin-Afb), Finland
Etäisyys asemalta: Kaakko 180 km
Päivitetty: 28.01.2020 18:20
Sumua, Ukkosta  
Sumua, Ukkosta  
   Tuuli: Kaakko 2.1 m/s
Tuuli: Kaakko 2.1 m/s
Lämpötila: 1°C
Tuulen hyytävyys: -1°C
Kastepiste: 1°C
Kosteus: 100%
Ilmanpaine: 1000 hPa
Pilvisyys: Ukkosta
Näkyvyys: 1 km
Pilvitiedot: Ukkosta
EFUT 281620Z AUTO 13004KT 0900 R25/0900D FG //////CB 01/01 Q1000
EFVA - Vaasa, Finland
Etäisyys asemalta: Luode 180 km
Päivitetty: 28.01.2020 18:20
Sumupilvilauttoja, Sumua, Pilvistä  
Sumupilvilauttoja, Sumua, Pilvistä  
   Tuuli: Itäkaakko 2.6 m/s
Tuuli: Itäkaakko 2.6 m/s
Lämpötila: 1°C
Tuulen hyytävyys: -2°C
Kastepiste: 0°C
Kosteus: 93%
Ilmanpaine: 997 hPa
Pilvisyys: Pilvistä
Näkyvyys: 1 km
Pilvitiedot: Pilvistä 61 m
EFVA 281620Z AUTO 12005KT 1000 R16/1200N BCFG VV002 01/00 Q0997
EFHK - Helsinki/Vantaa, Finland
Etäisyys asemalta: Etelä 191 km
Päivitetty: 28.01.2020 18:20
Heikkoa sadetta, Melkein pilvistä  
Heikkoa sadetta, Melkein pilvistä  
   Tuuli: Itäkaakko 2.6 m/s
Tuuli: Itäkaakko 2.6 m/s
Lämpötila: 2°C
Tuulen hyytävyys: -1°C
Kastepiste: 2°C
Kosteus: 100%
Ilmanpaine: 999 hPa
Pilvisyys: Melkein pilvistä
Näkyvyys: Enemmän kuin 10 km
Pilvitiedot: Melkein pilvistä 183 m
EFHK 281620Z 12005KT 090V150 9999 -RA BKN006 02/02 Q0999 NOSIG

Alkuperäinen skripti  Saratoga-weather.org Sovitettu myös templatelle  Weerstation Leuven

Laitteet joita käytämme:

Sääasema
Davis VP2

Sääasemaohjelma
Cumulus

Sääaseman palvelin
HP ProBook 6460b

Palveluntarjoaja
Radicenter

Davis VP2

Cumulus

HP ProBook 6460b

Radicenter




Flag Counter Cumulus Top Weather Sites